sensor_id;sensor_type;location;lat;lon;timestamp;pressure;altitude;pressure_sealevel;temperature;humidity
65546;BME280;52177;55.968;37.498;2022-09-29T00:00:13;98542.31;;;9.13;79.95
65546;BME280;52177;55.968;37.498;2022-09-29T00:00:47;98548.44;;;9.14;79.93
65546;BME280;52177;55.968;37.498;2022-09-29T00:01:17;98555.22;;;9.16;79.83
65546;BME280;52177;55.968;37.498;2022-09-29T00:01:48;98556.44;;;9.14;79.97
65546;BME280;52177;55.968;37.498;2022-09-29T00:02:18;98553.78;;;9.14;79.96
65546;BME280;52177;55.968;37.498;2022-09-29T00:02:48;98552.31;;;9.11;79.79
65546;BME280;52177;55.968;37.498;2022-09-29T00:03:22;98554.97;;;9.11;79.84
65546;BME280;52177;55.968;37.498;2022-09-29T00:03:53;98558.47;;;9.12;79.87
65546;BME280;52177;55.968;37.498;2022-09-29T00:04:23;98554.78;;;9.13;80.03
65546;BME280;52177;55.968;37.498;2022-09-29T00:04:53;98555.81;;;9.12;79.99
65546;BME280;52177;55.968;37.498;2022-09-29T00:05:24;98564.41;;;9.14;80.08
65546;BME280;52177;55.968;37.498;2022-09-29T00:05:55;98560.31;;;9.11;79.95
65546;BME280;52177;55.968;37.498;2022-09-29T00:06:25;98561.13;;;9.12;79.85
65546;BME280;52177;55.968;37.498;2022-09-29T00:06:56;98561.13;;;9.12;79.96
65546;BME280;52177;55.968;37.498;2022-09-29T00:07:27;98567.25;;;9.12;79.87
65546;BME280;52177;55.968;37.498;2022-09-29T00:07:58;98571.75;;;9.12;79.85
65546;BME280;52177;55.968;37.498;2022-09-29T00:08:31;98567.25;;;9.12;79.95
65546;BME280;52177;55.968;37.498;2022-09-29T00:09:02;98567.44;;;9.11;79.86
65546;BME280;52177;55.968;37.498;2022-09-29T00:09:32;98566.00;;;9.08;79.89
65546;BME280;52177;55.968;37.498;2022-09-29T00:10:03;98566.22;;;9.06;79.93
65546;BME280;52177;55.968;37.498;2022-09-29T00:10:34;98568.00;;;9.06;79.89
65546;BME280;52177;55.968;37.498;2022-09-29T00:11:12;98570.69;;;9.06;80.01
65546;BME280;52177;55.968;37.498;2022-09-29T00:11:42;98565.56;;;9.04;79.97
65546;BME280;52177;55.968;37.498;2022-09-29T00:12:13;98575.19;;;9.05;79.90
65546;BME280;52177;55.968;37.498;2022-09-29T00:12:43;98566.38;;;9.05;79.95
65546;BME280;52177;55.968;37.498;2022-09-29T00:13:14;98563.72;;;9.05;79.97
65546;BME280;52177;55.968;37.498;2022-09-29T00:13:46;98570.69;;;9.06;79.75
65546;BME280;52177;55.968;37.498;2022-09-29T00:14:16;98568.22;;;9.04;79.91
65546;BME280;52177;55.968;37.498;2022-09-29T00:14:47;98570.06;;;9.04;80.13
65546;BME280;52177;55.968;37.498;2022-09-29T00:15:17;98567.41;;;9.04;79.94
65546;BME280;52177;55.968;37.498;2022-09-29T00:15:59;98570.88;;;9.04;79.82
65546;BME280;52177;55.968;37.498;2022-09-29T00:16:30;98566.38;;;9.05;79.96
65546;BME280;52177;55.968;37.498;2022-09-29T00:17:00;98572.72;;;9.04;79.82
65546;BME280;52177;55.968;37.498;2022-09-29T00:17:31;98568.41;;;9.03;79.72
65546;BME280;52177;55.968;37.498;2022-09-29T00:18:01;98565.97;;;9.01;79.93
65546;BME280;52177;55.968;37.498;2022-09-29T00:18:33;98565.13;;;9.01;79.97
65546;BME280;52177;55.968;37.498;2022-09-29T00:19:03;98566.97;;;9.00;79.89
65546;BME280;52177;55.968;37.498;2022-09-29T00:19:34;98568.81;;;9.00;79.80
65546;BME280;52177;55.968;37.498;2022-09-29T00:20:04;98566.34;;;8.98;79.81
65546;BME280;52177;55.968;37.498;2022-09-29T00:20:35;98567.16;;;8.99;79.91
65546;BME280;52177;55.968;37.498;2022-09-29T00:21:09;98568.19;;;8.98;79.83
65546;BME280;52177;55.968;37.498;2022-09-29T00:21:43;98567.56;;;8.96;79.92
65546;BME280;52177;55.968;37.498;2022-09-29T00:22:13;98565.06;;;8.94;79.96
65546;BME280;52177;55.968;37.498;2022-09-29T00:22:43;98566.91;;;8.94;80.00
65546;BME280;52177;55.968;37.498;2022-09-29T00:23:14;98561.59;;;8.94;79.98
65546;BME280;52177;55.968;37.498;2022-09-29T00:23:44;98567.94;;;8.93;80.10
65546;BME280;52177;55.968;37.498;2022-09-29T00:24:15;98568.75;;;8.93;80.06
65546;BME280;52177;55.968;37.498;2022-09-29T00:24:46;98565.28;;;8.93;80.11
65546;BME280;52177;55.968;37.498;2022-09-29T00:25:17;98574.91;;;8.94;80.12
65546;BME280;52177;55.968;37.498;2022-09-29T00:25:48;98567.13;;;8.92;80.10
65546;BME280;52177;55.968;37.498;2022-09-29T00:26:21;98568.13;;;8.91;80.16
65546;BME280;52177;55.968;37.498;2022-09-29T00:26:52;98572.63;;;8.91;80.15
65546;BME280;52177;55.968;37.498;2022-09-29T00:27:22;98576.09;;;8.91;80.14
65546;BME280;52177;55.968;37.498;2022-09-29T00:27:53;98576.09;;;8.91;80.16
65546;BME280;52177;55.968;37.498;2022-09-29T00:28:23;98576.91;;;8.92;80.19
65546;BME280;52177;55.968;37.498;2022-09-29T00:28:56;98573.63;;;8.90;80.09
65546;BME280;52177;55.968;37.498;2022-09-29T00:29:27;98574.66;;;8.88;80.28
65546;BME280;52177;55.968;37.498;2022-09-29T00:29:57;98567.72;;;8.87;80.11
65546;BME280;52177;55.968;37.498;2022-09-29T00:30:27;98579.34;;;8.86;80.30
65546;BME280;52177;55.968;37.498;2022-09-29T00:30:59;98576.69;;;8.86;80.39
65546;BME280;52177;55.968;37.498;2022-09-29T00:31:32;98583.03;;;8.85;80.20
65546;BME280;52177;55.968;37.498;2022-09-29T00:32:03;98582.00;;;8.86;80.22
65546;BME280;52177;55.968;37.498;2022-09-29T00:32:33;98585.47;;;8.87;80.29
65546;BME280;52177;55.968;37.498;2022-09-29T00:33:04;98578.53;;;8.86;80.33
65546;BME280;52177;55.968;37.498;2022-09-29T00:33:35;98577.72;;;8.85;80.29
65546;BME280;52177;55.968;37.498;2022-09-29T00:34:06;98582.22;;;8.85;80.34
65546;BME280;52177;55.968;37.498;2022-09-29T00:34:36;98578.91;;;8.83;80.23
65546;BME280;52177;55.968;37.498;2022-09-29T00:35:11;98572.97;;;8.81;80.41
65546;BME280;52177;55.968;37.498;2022-09-29T00:35:41;98582.56;;;8.82;80.28
65546;BME280;52177;55.968;37.498;2022-09-29T00:36:14;98581.75;;;8.81;80.40
65546;BME280;52177;55.968;37.498;2022-09-29T00:36:45;98583.59;;;8.81;80.43
65546;BME280;52177;55.968;37.498;2022-09-29T00:37:15;98576.63;;;8.80;80.47
65546;BME280;52177;55.968;37.498;2022-09-29T00:37:46;98582.16;;;8.78;80.58
65546;BME280;52177;55.968;37.498;2022-09-29T00:38:16;98583.78;;;8.79;80.47
65546;BME280;52177;55.968;37.498;2022-09-29T00:38:51;98581.94;;;8.80;80.46
65546;BME280;52177;55.968;37.498;2022-09-29T00:39:22;98578.47;;;8.79;80.46
65546;BME280;52177;55.968;37.498;2022-09-29T00:39:52;98579.28;;;8.80;80.53
65546;BME280;52177;55.968;37.498;2022-09-29T00:40:23;98576.63;;;8.80;80.49
65546;BME280;52177;55.968;37.498;2022-09-29T00:40:53;98573.97;;;8.80;80.57
65546;BME280;52177;55.968;37.498;2022-09-29T00:41:30;98571.31;;;8.80;80.59
65546;BME280;52177;55.968;37.498;2022-09-29T00:42:01;98581.13;;;8.79;80.25
65546;BME280;52177;55.968;37.498;2022-09-29T00:42:31;98576.84;;;8.78;80.49
65546;BME280;52177;55.968;37.498;2022-09-29T00:43:02;98567.03;;;8.79;80.57
65546;BME280;52177;55.968;37.498;2022-09-29T00:43:52;98573.34;;;8.78;80.62
65546;BME280;52177;55.968;37.498;2022-09-29T00:45:01;98576.84;;;8.78;80.59
65546;BME280;52177;55.968;37.498;2022-09-29T00:45:33;98578.88;;;8.76;80.76
65546;BME280;52177;55.968;37.498;2022-09-29T00:46:04;98582.34;;;8.77;80.62
65546;BME280;52177;55.968;37.498;2022-09-29T00:46:40;98586.63;;;8.78;80.69
65546;BME280;52177;55.968;37.498;2022-09-29T00:47:15;98576.22;;;8.76;80.66
65546;BME280;52177;55.968;37.498;2022-09-29T00:48:12;98584.81;;;8.78;80.70
65546;BME280;52177;55.968;37.498;2022-09-29T00:48:41;98575.19;;;8.77;80.61
65546;BME280;52177;55.968;37.498;2022-09-29T00:49:33;98582.34;;;8.77;80.76
65546;BME280;52177;55.968;37.498;2022-09-29T00:50:47;98587.84;;;8.75;80.67
65546;BME280;52177;55.968;37.498;2022-09-29T00:51:17;98589.84;;;8.73;80.78
65546;BME280;52177;55.968;37.498;2022-09-29T00:51:55;98586.19;;;8.74;80.74
65546;BME280;52177;55.968;37.498;2022-09-29T00:53:01;98583.38;;;8.76;80.91
65546;BME280;52177;55.968;37.498;2022-09-29T00:53:33;98585.19;;;8.75;80.81
65546;BME280;52177;55.968;37.498;2022-09-29T00:54:04;98598.47;;;8.75;80.75
65546;BME280;52177;55.968;37.498;2022-09-29T00:54:42;98591.34;;;8.76;80.68
65546;BME280;52177;55.968;37.498;2022-09-29T00:55:20;98593.16;;;8.75;80.62
65546;BME280;52177;55.968;37.498;2022-09-29T00:55:55;98592.16;;;8.76;80.52
65546;BME280;52177;55.968;37.498;2022-09-29T00:56:29;98590.69;;;8.74;80.66
65546;BME280;52177;55.968;37.498;2022-09-29T00:57:01;98596.84;;;8.74;80.64
65546;BME280;52177;55.968;37.498;2022-09-29T00:57:36;98596.00;;;8.74;80.54
65546;BME280;52177;55.968;37.498;2022-09-29T00:58:58;98593.72;;;8.71;80.53
65546;BME280;52177;55.968;37.498;2022-09-29T00:59:47;98594.56;;;8.71;80.69
65546;BME280;52177;55.968;37.498;2022-09-29T01:00:20;98596.59;;;8.69;80.78
65546;BME280;52177;55.968;37.498;2022-09-29T01:00:50;98595.56;;;8.70;80.80
65546;BME280;52177;55.968;37.498;2022-09-29T01:01:22;98600.88;;;8.70;80.67
65546;BME280;52177;55.968;37.498;2022-09-29T01:01:53;98591.06;;;8.71;80.62
65546;BME280;52177;55.968;37.498;2022-09-29T01:02:24;98598.22;;;8.70;80.68
65546;BME280;52177;55.968;37.498;2022-09-29T01:03:08;98597.59;;;8.68;80.64
65546;BME280;52177;55.968;37.498;2022-09-29T01:03:44;98601.28;;;8.67;80.77
65546;BME280;52177;55.968;37.498;2022-09-29T01:04:17;98600.25;;;8.68;80.60
65546;BME280;52177;55.968;37.498;2022-09-29T01:04:49;98594.75;;;8.70;80.71
65546;BME280;52177;55.968;37.498;2022-09-29T01:05:26;98595.78;;;8.69;80.70
65546;BME280;52177;55.968;37.498;2022-09-29T01:06:00;98598.44;;;8.69;80.61
65546;BME280;52177;55.968;37.498;2022-09-29T01:06:45;98599.25;;;8.69;80.66
65546;BME280;52177;55.968;37.498;2022-09-29T01:07:18;98607.22;;;8.69;80.58
65546;BME280;52177;55.968;37.498;2022-09-29T01:07:51;98608.03;;;8.70;80.86
65546;BME280;52177;55.968;37.498;2022-09-29T01:08:48;98609.88;;;8.69;80.77
65546;BME280;52177;55.968;37.498;2022-09-29T01:09:26;98611.50;;;8.70;80.80
65546;BME280;52177;55.968;37.498;2022-09-29T01:09:58;98613.16;;;8.71;80.82
65546;BME280;52177;55.968;37.498;2022-09-29T01:10:29;98609.66;;;8.71;80.81
65546;BME280;52177;55.968;37.498;2022-09-29T01:11:00;98610.50;;;8.71;80.87
65546;BME280;52177;55.968;37.498;2022-09-29T01:11:31;98614.97;;;8.71;80.85
65546;BME280;52177;55.968;37.498;2022-09-29T01:12:02;98607.00;;;8.71;80.69
65546;BME280;52177;55.968;37.498;2022-09-29T01:12:34;98606.00;;;8.72;80.85
65546;BME280;52177;55.968;37.498;2022-09-29T01:13:05;98614.78;;;8.72;80.81
65546;BME280;52177;55.968;37.498;2022-09-29T01:13:37;98610.28;;;8.73;80.84
65546;BME280;52177;55.968;37.498;2022-09-29T01:14:08;98608.47;;;8.73;80.74
65546;BME280;52177;55.968;37.498;2022-09-29T01:14:39;98604.97;;;8.73;80.81
65546;BME280;52177;55.968;37.498;2022-09-29T01:15:12;98609.47;;;8.72;80.77
65546;BME280;52177;55.968;37.498;2022-09-29T01:15:44;98606.00;;;8.72;80.72
65546;BME280;52177;55.968;37.498;2022-09-29T01:16:15;98600.47;;;8.73;80.79
65546;BME280;52177;55.968;37.498;2022-09-29T01:16:45;98606.81;;;8.72;80.70
65546;BME280;52177;55.968;37.498;2022-09-29T01:17:16;98606.81;;;8.72;80.77
65546;BME280;52177;55.968;37.498;2022-09-29T01:17:48;98608.66;;;8.72;80.72
65546;BME280;52177;55.968;37.498;2022-09-29T01:18:18;98609.31;;;8.74;80.71
65546;BME280;52177;55.968;37.498;2022-09-29T01:18:49;98610.28;;;8.73;80.75
65546;BME280;52177;55.968;37.498;2022-09-29T01:20:14;98604.16;;;8.72;80.75
65546;BME280;52177;55.968;37.498;2022-09-29T01:21:12;98601.50;;;8.72;80.81
65546;BME280;52177;55.968;37.498;2022-09-29T01:23:51;98604.00;;;8.74;80.93
65546;BME280;52177;55.968;37.498;2022-09-29T01:35:25;98606.91;;;8.57;81.47
65546;BME280;52177;55.968;37.498;2022-09-29T01:37:01;98600.75;;;8.57;81.50
65546;BME280;52177;55.968;37.498;2022-09-29T01:38:13;98602.41;;;8.58;81.49
65546;BME280;52177;55.968;37.498;2022-09-29T01:39:29;98600.56;;;8.58;81.48
65546;BME280;52177;55.968;37.498;2022-09-29T01:40:47;98595.44;;;8.57;81.47
65546;BME280;52177;55.968;37.498;2022-09-29T01:42:17;98598.50;;;8.54;81.70
65546;BME280;52177;55.968;37.498;2022-09-29T01:42:56;98597.66;;;8.53;81.76
65546;BME280;52177;55.968;37.498;2022-09-29T01:43:34;98597.03;;;8.51;81.62
65546;BME280;52177;55.968;37.498;2022-09-29T01:44:23;98600.50;;;8.52;81.59
65546;BME280;52177;55.968;37.498;2022-09-29T01:45:05;98602.53;;;8.50;81.72
65546;BME280;52177;55.968;37.498;2022-09-29T01:45:41;98598.88;;;8.51;81.71
65546;BME280;52177;55.968;37.498;2022-09-29T01:47:15;98609.31;;;8.52;81.67
65546;BME280;52177;55.968;37.498;2022-09-29T01:47:49;98616.25;;;8.53;81.73
65546;BME280;52177;55.968;37.498;2022-09-29T01:48:25;98613.44;;;8.55;81.63
65546;BME280;52177;55.968;37.498;2022-09-29T01:49:00;98615.88;;;8.56;81.63
65546;BME280;52177;55.968;37.498;2022-09-29T01:49:36;98621.00;;;8.58;81.63
65546;BME280;52177;55.968;37.498;2022-09-29T01:50:15;98613.84;;;8.58;81.55
65546;BME280;52177;55.968;37.498;2022-09-29T01:50:51;98625.28;;;8.59;81.56
65546;BME280;52177;55.968;37.498;2022-09-29T01:51:30;98618.34;;;8.58;81.41
65546;BME280;52177;55.968;37.498;2022-09-29T01:52:08;98621.81;;;8.58;81.45
65546;BME280;52177;55.968;37.498;2022-09-29T01:52:47;98618.34;;;8.58;81.48
65546;BME280;52177;55.968;37.498;2022-09-29T01:53:24;98625.69;;;8.56;81.48
65546;BME280;52177;55.968;37.498;2022-09-29T01:54:02;98622.84;;;8.57;81.41
65546;BME280;52177;55.968;37.498;2022-09-29T01:55:21;98623.28;;;8.61;81.56
65546;BME280;52177;55.968;37.498;2022-09-29T01:55:57;98625.75;;;8.62;81.56
65546;BME280;52177;55.968;37.498;2022-09-29T01:56:58;98624.72;;;8.63;81.55
65546;BME280;52177;55.968;37.498;2022-09-29T01:57:42;98620.25;;;8.64;81.48
65546;BME280;52177;55.968;37.498;2022-09-29T01:58:22;98626.19;;;8.66;81.49
65546;BME280;52177;55.968;37.498;2022-09-29T01:58:55;98626.19;;;8.66;81.48
65546;BME280;52177;55.968;37.498;2022-09-29T01:59:42;98627.03;;;8.66;81.47
65546;BME280;52177;55.968;37.498;2022-09-29T02:00:16;98632.13;;;8.68;81.43
65546;BME280;52177;55.968;37.498;2022-09-29T02:00:51;98625.81;;;8.69;81.38
65546;BME280;52177;55.968;37.498;2022-09-29T02:01:26;98631.13;;;8.69;81.41
65546;BME280;52177;55.968;37.498;2022-09-29T02:02:01;98633.56;;;8.71;81.37
65546;BME280;52177;55.968;37.498;2022-09-29T02:03:27;98626.25;;;8.73;81.29
65546;BME280;52177;55.968;37.498;2022-09-29T02:04:06;98634.03;;;8.74;81.36
65546;BME280;52177;55.968;37.498;2022-09-29T02:05:00;98628.72;;;8.74;81.08
65546;BME280;52177;55.968;37.498;2022-09-29T02:05:32;98630.34;;;8.75;81.24
65546;BME280;52177;55.968;37.498;2022-09-29T02:06:16;98639.34;;;8.74;81.07
65546;BME280;52177;55.968;37.498;2022-09-29T02:06:53;98627.91;;;8.74;81.10
65546;BME280;52177;55.968;37.498;2022-09-29T02:07:30;98635.88;;;8.74;81.24
65546;BME280;52177;55.968;37.498;2022-09-29T02:08:28;98629.72;;;8.73;81.22
65546;BME280;52177;55.968;37.498;2022-09-29T02:09:04;98635.03;;;8.73;81.24
65546;BME280;52177;55.968;37.498;2022-09-29T02:09:41;98632.19;;;8.75;81.26
65546;BME280;52177;55.968;37.498;2022-09-29T02:10:18;98635.03;;;8.73;81.08
65546;BME280;52177;55.968;37.498;2022-09-29T02:10:58;98630.56;;;8.74;81.29
65546;BME280;52177;55.968;37.498;2022-09-29T02:11:31;98633.41;;;8.72;81.29
65546;BME280;52177;55.968;37.498;2022-09-29T02:12:04;98636.06;;;8.72;81.33
65546;BME280;52177;55.968;37.498;2022-09-29T02:12:37;98636.06;;;8.72;81.34
65546;BME280;52177;55.968;37.498;2022-09-29T02:13:10;98633.56;;;8.71;81.48
65546;BME280;52177;55.968;37.498;2022-09-29T02:13:57;98633.78;;;8.69;81.47
65546;BME280;52177;55.968;37.498;2022-09-29T02:14:35;98628.66;;;8.68;81.44
65546;BME280;52177;55.968;37.498;2022-09-29T02:15:07;98630.50;;;8.67;81.72
65546;BME280;52177;55.968;37.498;2022-09-29T02:15:44;98632.34;;;8.66;81.66
65546;BME280;52177;55.968;37.498;2022-09-29T02:16:23;98638.47;;;8.67;81.77
65546;BME280;52177;55.968;37.498;2022-09-29T02:17:19;98638.84;;;8.64;81.77
65546;BME280;52177;55.968;37.498;2022-09-29T02:17:50;98639.66;;;8.64;81.89
65546;BME280;52177;55.968;37.498;2022-09-29T02:18:28;98643.13;;;8.65;81.93
65546;BME280;52177;55.968;37.498;2022-09-29T02:19:04;98642.13;;;8.66;81.94
65546;BME280;52177;55.968;37.498;2022-09-29T02:19:39;98644.59;;;8.68;81.84
65546;BME280;52177;55.968;37.498;2022-09-29T02:20:12;98649.09;;;8.67;81.83
65546;BME280;52177;55.968;37.498;2022-09-29T02:20:45;98647.88;;;8.70;81.81
65546;BME280;52177;55.968;37.498;2022-09-29T02:21:15;98639.72;;;8.71;81.86
65546;BME280;52177;55.968;37.498;2022-09-29T02:21:46;98642.56;;;8.70;81.92
65546;BME280;52177;55.968;37.498;2022-09-29T02:22:17;98639.91;;;8.70;82.00
65546;BME280;52177;55.968;37.498;2022-09-29T02:22:47;98647.06;;;8.69;81.90
65546;BME280;52177;55.968;37.498;2022-09-29T02:23:18;98641.53;;;8.71;81.81
65546;BME280;52177;55.968;37.498;2022-09-29T02:23:50;98639.91;;;8.70;81.97
65546;BME280;52177;55.968;37.498;2022-09-29T02:24:22;98646.69;;;8.72;81.82
65546;BME280;52177;55.968;37.498;2022-09-29T02:24:54;98644.03;;;8.72;81.87
65546;BME280;52177;55.968;37.498;2022-09-29T02:25:27;98647.50;;;8.73;81.73
65546;BME280;52177;55.968;37.498;2022-09-29T02:25:58;98645.66;;;8.73;81.83
65546;BME280;52177;55.968;37.498;2022-09-29T02:26:32;98649.97;;;8.74;81.77
65546;BME280;52177;55.968;37.498;2022-09-29T02:27:06;98651.81;;;8.74;81.81
65546;BME280;52177;55.968;37.498;2022-09-29T02:27:37;98649.16;;;8.74;81.76
65546;BME280;52177;55.968;37.498;2022-09-29T02:28:08;98645.47;;;8.75;81.63
65546;BME280;52177;55.968;37.498;2022-09-29T02:28:39;98647.13;;;8.76;81.67
65546;BME280;52177;55.968;37.498;2022-09-29T02:29:12;98650.59;;;8.76;81.67
65546;BME280;52177;55.968;37.498;2022-09-29T02:29:43;98649.78;;;8.76;81.77
65546;BME280;52177;55.968;37.498;2022-09-29T02:30:15;98647.13;;;8.76;81.67
65546;BME280;52177;55.968;37.498;2022-09-29T02:30:48;98653.25;;;8.76;81.75
65546;BME280;52177;55.968;37.498;2022-09-29T02:31:19;98651.59;;;8.75;81.68
65546;BME280;52177;55.968;37.498;2022-09-29T02:31:49;98647.31;;;8.74;81.80
65546;BME280;52177;55.968;37.498;2022-09-29T02:32:20;98642.81;;;8.75;81.80
65546;BME280;52177;55.968;37.498;2022-09-29T02:32:50;98648.13;;;8.75;81.83
65546;BME280;52177;55.968;37.498;2022-09-29T02:33:23;98651.59;;;8.75;81.76
65546;BME280;52177;55.968;37.498;2022-09-29T02:33:54;98645.47;;;8.75;81.80
65546;BME280;52177;55.968;37.498;2022-09-29T02:34:24;98649.78;;;8.76;81.85
65546;BME280;52177;55.968;37.498;2022-09-29T02:34:55;98644.66;;;8.74;81.87
65546;BME280;52177;55.968;37.498;2022-09-29T02:35:33;98640.97;;;8.75;81.89
65546;BME280;52177;55.968;37.498;2022-09-29T02:36:25;98651.59;;;8.75;81.95
65546;BME280;52177;55.968;37.498;2022-09-29T02:37:32;98644.66;;;8.74;81.86
65546;BME280;52177;55.968;37.498;2022-09-29T02:38:14;98648.31;;;8.73;82.02
65546;BME280;52177;55.968;37.498;2022-09-29T02:40:02;98643.00;;;8.73;82.08
65546;BME280;52177;55.968;37.498;2022-09-29T02:41:25;98647.50;;;8.73;82.11
65546;BME280;52177;55.968;37.498;2022-09-29T02:42:44;98637.06;;;8.71;82.00
65546;BME280;52177;55.968;37.498;2022-09-29T02:47:16;98631.13;;;8.69;82.23
65546;BME280;52177;55.968;37.498;2022-09-29T02:50:19;98629.47;;;8.68;82.25
65546;BME280;52177;55.968;37.498;2022-09-29T02:50:55;98629.47;;;8.68;82.21
65546;BME280;52177;55.968;37.498;2022-09-29T02:51:41;98638.28;;;8.69;82.08
65546;BME280;52177;55.968;37.498;2022-09-29T02:55:13;98646.50;;;8.74;82.23
65546;BME280;52177;55.968;37.498;2022-09-29T02:59:05;98645.72;;;8.80;81.82
65546;BME280;52177;55.968;37.498;2022-09-29T02:59:39;98654.53;;;8.80;81.66
65546;BME280;52177;55.968;37.498;2022-09-29T03:00:16;98655.34;;;8.81;81.68
65546;BME280;52177;55.968;37.498;2022-09-29T03:00:47;98654.53;;;8.80;81.76
65546;BME280;52177;55.968;37.498;2022-09-29T03:01:17;98656.16;;;8.81;81.73
65546;BME280;52177;55.968;37.498;2022-09-29T03:01:50;98655.16;;;8.82;81.50
65546;BME280;52177;55.968;37.498;2022-09-29T03:02:24;98655.34;;;8.81;81.49
65546;BME280;52177;55.968;37.498;2022-09-29T03:02:55;98650.03;;;8.81;81.51
65546;BME280;52177;55.968;37.498;2022-09-29T03:03:26;98656.16;;;8.81;81.50
65546;BME280;52177;55.968;37.498;2022-09-29T03:03:57;98654.97;;;8.84;81.55
65546;BME280;52177;55.968;37.498;2022-09-29T03:04:28;98656.97;;;8.82;81.46
65546;BME280;52177;55.968;37.498;2022-09-29T03:04:59;98654.31;;;8.82;81.60
65546;BME280;52177;55.968;37.498;2022-09-29T03:05:29;98652.47;;;8.82;81.59
65546;BME280;52177;55.968;37.498;2022-09-29T03:06:01;98650.84;;;8.81;81.47
65546;BME280;52177;55.968;37.498;2022-09-29T03:06:31;98657.19;;;8.80;81.66
65546;BME280;52177;55.968;37.498;2022-09-29T03:07:01;98653.69;;;8.80;81.58
65546;BME280;52177;55.968;37.498;2022-09-29T03:07:32;98657.38;;;8.79;81.71
65546;BME280;52177;55.968;37.498;2022-09-29T03:08:02;98663.50;;;8.79;81.77
65546;BME280;52177;55.968;37.498;2022-09-29T03:08:34;98657.38;;;8.79;81.66
65546;BME280;52177;55.968;37.498;2022-09-29T03:09:06;98668.00;;;8.79;81.72
65546;BME280;52177;55.968;37.498;2022-09-29T03:09:36;98657.38;;;8.79;81.70
65546;BME280;52177;55.968;37.498;2022-09-29T03:10:08;98660.03;;;8.79;81.91
65546;BME280;52177;55.968;37.498;2022-09-29T03:10:39;98660.22;;;8.77;81.93
65546;BME280;52177;55.968;37.498;2022-09-29T03:11:09;98661.88;;;8.78;81.97
65546;BME280;52177;55.968;37.498;2022-09-29T03:11:39;98657.56;;;8.77;81.96
65546;BME280;52177;55.968;37.498;2022-09-29T03:12:10;98662.06;;;8.77;82.06
65546;BME280;52177;55.968;37.498;2022-09-29T03:12:41;98664.53;;;8.78;81.97
65546;BME280;52177;55.968;37.498;2022-09-29T03:13:11;98659.41;;;8.77;82.10
65546;BME280;52177;55.968;37.498;2022-09-29T03:13:42;98666.56;;;8.76;82.17
65546;BME280;52177;55.968;37.498;2022-09-29T03:14:12;98661.03;;;8.78;82.09
65546;BME280;52177;55.968;37.498;2022-09-29T03:14:43;98658.38;;;8.78;82.16
65546;BME280;52177;55.968;37.498;2022-09-29T03:15:14;98660.22;;;8.77;82.17
65546;BME280;52177;55.968;37.498;2022-09-29T03:15:44;98659.22;;;8.78;82.26
65546;BME280;52177;55.968;37.498;2022-09-29T03:16:14;98658.38;;;8.78;82.16
65546;BME280;52177;55.968;37.498;2022-09-29T03:16:45;98660.22;;;8.77;82.04
65546;BME280;52177;55.968;37.498;2022-09-29T03:17:15;98660.41;;;8.76;82.10
65546;BME280;52177;55.968;37.498;2022-09-29T03:17:45;98657.56;;;8.77;82.19
65546;BME280;52177;55.968;37.498;2022-09-29T03:18:16;98659.56;;;8.75;82.30
65546;BME280;52177;55.968;37.498;2022-09-29T03:18:46;98663.91;;;8.76;82.22
65546;BME280;52177;55.968;37.498;2022-09-29T03:19:17;98660.59;;;8.74;82.18
65546;BME280;52177;55.968;37.498;2022-09-29T03:19:47;98659.78;;;8.74;82.10
65546;BME280;52177;55.968;37.498;2022-09-29T03:20:19;98658.94;;;8.73;82.27
65546;BME280;52177;55.968;37.498;2022-09-29T03:20:53;98650.16;;;8.73;82.25
65546;BME280;52177;55.968;37.498;2022-09-29T03:21:23;98652.00;;;8.72;82.20
65546;BME280;52177;55.968;37.498;2022-09-29T03:21:54;98655.69;;;8.71;82.26
65546;BME280;52177;55.968;37.498;2022-09-29T03:22:25;98653.84;;;8.72;82.28
65546;BME280;52177;55.968;37.498;2022-09-29T03:22:56;98658.34;;;8.71;82.33
65546;BME280;52177;55.968;37.498;2022-09-29T03:23:26;98660.78;;;8.73;82.35
65546;BME280;52177;55.968;37.498;2022-09-29T03:23:57;98660.78;;;8.73;82.43
65546;BME280;52177;55.968;37.498;2022-09-29T03:24:27;98659.78;;;8.74;82.44
65546;BME280;52177;55.968;37.498;2022-09-29T03:24:57;98659.16;;;8.72;82.35
65546;BME280;52177;55.968;37.498;2022-09-29T03:25:28;98658.94;;;8.73;82.45
65546;BME280;52177;55.968;37.498;2022-09-29T03:25:59;98661.59;;;8.73;82.44
65546;BME280;52177;55.968;37.498;2022-09-29T03:26:29;98658.94;;;8.73;82.41
65546;BME280;52177;55.968;37.498;2022-09-29T03:26:59;98658.94;;;8.73;82.44
65546;BME280;52177;55.968;37.498;2022-09-29T03:27:30;98663.25;;;8.74;82.21
65546;BME280;52177;55.968;37.498;2022-09-29T03:28:00;98661.59;;;8.73;82.46
65546;BME280;52177;55.968;37.498;2022-09-29T03:28:30;98654.47;;;8.74;82.47
65546;BME280;52177;55.968;37.498;2022-09-29T03:29:01;98659.78;;;8.74;82.47
65546;BME280;52177;55.968;37.498;2022-09-29T03:29:32;98655.47;;;8.73;82.45
65546;BME280;52177;55.968;37.498;2022-09-29T03:30:03;98654.47;;;8.74;82.43
65546;BME280;52177;55.968;37.498;2022-09-29T03:30:33;98657.31;;;8.72;82.47
65546;BME280;52177;55.968;37.498;2022-09-29T03:31:07;98652.81;;;8.73;82.45
65546;BME280;52177;55.968;37.498;2022-09-29T03:31:41;98657.31;;;8.72;82.52
65546;BME280;52177;55.968;37.498;2022-09-29T03:32:11;98657.31;;;8.72;82.48
65546;BME280;52177;55.968;37.498;2022-09-29T03:32:42;98651.19;;;8.72;82.55
65546;BME280;52177;55.968;37.498;2022-09-29T03:33:12;98661.59;;;8.73;82.53
65546;BME280;52177;55.968;37.498;2022-09-29T03:33:43;98652.00;;;8.72;82.50
65546;BME280;52177;55.968;37.498;2022-09-29T03:34:14;98659.97;;;8.72;82.63
65546;BME280;52177;55.968;37.498;2022-09-29T03:34:44;98658.13;;;8.73;82.41
65546;BME280;52177;55.968;37.498;2022-09-29T03:35:15;98660.78;;;8.73;82.50
65546;BME280;52177;55.968;37.498;2022-09-29T03:35:45;98658.94;;;8.73;82.50
65546;BME280;52177;55.968;37.498;2022-09-29T03:36:15;98661.59;;;8.73;82.52
65546;BME280;52177;55.968;37.498;2022-09-29T03:36:46;98659.78;;;8.74;82.54